createdAt,value
2023-11-30T00:02:53.099Z,12.10
2023-11-30T00:06:58.074Z,15.83
2023-11-30T00:11:02.783Z,13.07
2023-11-30T00:15:11.588Z,14.40
2023-11-30T00:19:16.330Z,15.83
2023-11-30T00:23:21.080Z,20.37
2023-11-30T00:27:25.798Z,19.43
2023-11-30T00:31:33.234Z,16.87
2023-11-30T00:35:37.973Z,16.37
2023-11-30T00:39:42.847Z,16.60
2023-11-30T00:43:47.602Z,20.80
2023-11-30T00:47:54.965Z,19.60
2023-11-30T00:51:59.735Z,23.77
2023-11-30T00:56:04.856Z,18.33
2023-11-30T01:00:11.941Z,23.63
2023-11-30T01:04:19.334Z,29.13
2023-11-30T01:08:24.114Z,20.03
2023-11-30T01:12:29.378Z,24.50
2023-11-30T01:16:34.654Z,22.73
2023-11-30T01:20:42.002Z,26.97
2023-11-30T01:24:46.727Z,26.97
2023-11-30T01:28:51.503Z,28.27
2023-11-30T01:32:56.300Z,28.47
2023-11-30T01:37:03.696Z,25.47
2023-11-30T01:41:11.773Z,27.40
2023-11-30T01:45:16.561Z,25.30
2023-11-30T01:49:21.433Z,28.97
2023-11-30T01:53:29.022Z,28.43
2023-11-30T01:57:34.285Z,35.20
2023-11-30T02:01:39.587Z,26.03
2023-11-30T02:05:44.720Z,23.63
2023-11-30T02:09:52.299Z,26.50
2023-11-30T02:13:58.048Z,32.13
2023-11-30T02:18:02.851Z,34.43
2023-11-30T02:22:10.477Z,38.03
2023-11-30T02:26:15.326Z,43.30
2023-11-30T02:30:20.158Z,45.57
2023-11-30T02:34:25.055Z,50.97
2023-11-30T02:38:33.801Z,45.77
2023-11-30T02:42:38.552Z,30.37
2023-11-30T02:46:43.342Z,45.67
2023-11-30T02:50:48.104Z,30.97
2023-11-30T02:54:55.537Z,40.57
2023-11-30T02:59:00.296Z,46.73
2023-11-30T03:03:05.050Z,71.87
2023-11-30T03:07:09.765Z,43.63
2023-11-30T03:11:17.126Z,36.87
2023-11-30T03:15:23.534Z,31.60
2023-11-30T03:19:28.383Z,31.70
2023-11-30T03:23:33.122Z,40.90
2023-11-30T03:27:40.438Z,28.80
2023-11-30T03:31:45.298Z,46.93
2023-11-30T03:35:51.976Z,33.97
2023-11-30T03:39:56.964Z,32.10
2023-11-30T03:44:04.342Z,62.23
2023-11-30T03:48:09.493Z,27.03
2023-11-30T03:52:14.242Z,28.57
2023-11-30T03:56:19.091Z,62.43
2023-11-30T04:00:26.855Z,32.27
2023-11-30T04:04:32.006Z,32.63
2023-11-30T04:08:38.080Z,45.60
2023-11-30T04:12:42.987Z,53.27
2023-11-30T04:16:50.337Z,25.67
2023-11-30T04:20:55.197Z,38.37
2023-11-30T04:24:59.999Z,27.30
2023-11-30T04:29:04.752Z,37.57
2023-11-30T04:33:12.662Z,40.77
2023-11-30T04:37:17.945Z,55.27
2023-11-30T04:41:24.221Z,46.50
2023-11-30T04:45:28.968Z,66.23
2023-11-30T04:49:36.486Z,83.23
2023-11-30T04:53:41.273Z,70.17
2023-11-30T04:57:46.009Z,37.20
2023-11-30T05:01:50.871Z,43.53
2023-11-30T05:05:58.383Z,57.17
2023-11-30T05:10:03.200Z,76.63
2023-11-30T05:14:07.991Z,40.90
2023-11-30T05:18:12.917Z,68.63
2023-11-30T05:22:20.372Z,44.30
2023-11-30T05:26:25.125Z,34.73
2023-11-30T05:30:30.365Z,47.60
2023-11-30T05:34:36.841Z,37.37
2023-11-30T05:38:44.213Z,35.00
2023-11-30T05:42:49.240Z,34.10
2023-11-30T05:46:54.404Z,38.73
2023-11-30T05:50:59.164Z,37.10
2023-11-30T05:55:07.603Z,41.13
2023-11-30T05:59:13.463Z,33.80
2023-11-30T06:03:18.487Z,40.23
2023-11-30T06:07:24.732Z,26.37
2023-11-30T06:11:32.070Z,29.50
2023-11-30T06:15:36.944Z,48.70
2023-11-30T06:19:42.041Z,31.03
2023-11-30T06:23:46.776Z,25.13
2023-11-30T06:27:54.081Z,52.83
2023-11-30T06:32:03.148Z,30.40
2023-11-30T06:36:09.168Z,30.33
2023-11-30T06:40:14.706Z,35.97
2023-11-30T06:44:22.185Z,40.70
2023-11-30T06:48:27.971Z,37.43
2023-11-30T06:52:32.973Z,54.73
2023-11-30T06:56:37.878Z,39.53
2023-11-30T07:00:45.944Z,36.83
2023-11-30T07:04:50.874Z,37.30
2023-11-30T07:08:55.697Z,33.93
2023-11-30T07:13:00.474Z,34.50
2023-11-30T07:17:08.208Z,34.40
2023-11-30T07:21:17.024Z,36.80
2023-11-30T07:25:21.831Z,30.03
2023-11-30T07:29:27.148Z,27.17
2023-11-30T07:33:34.907Z,32.83
2023-11-30T07:37:39.704Z,28.40
2023-11-30T07:41:44.426Z,27.43
2023-11-30T07:45:50.128Z,32.47
2023-11-30T07:49:58.083Z,30.53
2023-11-30T07:54:02.838Z,32.00
2023-11-30T07:58:07.797Z,25.80
2023-11-30T08:02:13.280Z,32.80
2023-11-30T08:06:20.622Z,31.67
2023-11-30T08:10:27.098Z,29.00
2023-11-30T08:14:32.156Z,34.13
2023-11-30T08:18:36.912Z,28.37
2023-11-30T08:22:44.331Z,27.70
2023-11-30T08:26:49.076Z,25.43
2023-11-30T08:30:53.903Z,73.87
2023-11-30T08:34:58.753Z,43.17
2023-11-30T08:39:07.362Z,35.40
2023-11-30T08:43:13.365Z,37.63
2023-11-30T08:47:18.090Z,36.70
2023-11-30T08:51:22.852Z,35.53
2023-11-30T08:55:30.290Z,34.07
2023-11-30T08:59:34.974Z,31.90
2023-11-30T09:03:40.894Z,40.13
2023-11-30T09:07:46.602Z,46.47
2023-11-30T09:11:53.987Z,42.90
2023-11-30T09:15:58.747Z,41.50
2023-11-30T09:20:03.830Z,33.87
2023-11-30T09:24:09.614Z,43.53
2023-11-30T09:28:17.289Z,44.77
2023-11-30T09:32:23.713Z,36.30
2023-11-30T09:36:28.453Z,46.17
2023-11-30T09:40:35.159Z,39.60
2023-11-30T09:44:42.538Z,38.50
2023-11-30T09:48:47.360Z,40.17
2023-11-30T09:52:52.093Z,34.30
2023-11-30T09:56:56.858Z,35.67
2023-11-30T10:01:05.067Z,32.87
2023-11-30T10:05:11.246Z,39.73
2023-11-30T10:09:16.991Z,37.97
2023-11-30T10:13:21.754Z,36.17
2023-11-30T10:17:30.357Z,41.33
2023-11-30T10:21:35.348Z,36.73
2023-11-30T10:25:41.026Z,36.80
2023-11-30T10:29:47.733Z,39.13
2023-11-30T10:33:59.914Z,34.87
2023-11-30T10:38:07.679Z,34.50
2023-11-30T10:42:15.687Z,41.50
2023-11-30T10:46:22.115Z,47.00
2023-11-30T10:50:33.065Z,41.83
2023-11-30T10:54:43.023Z,40.23
2023-11-30T10:58:48.389Z,40.87
2023-11-30T11:02:53.207Z,46.67
2023-11-30T11:07:07.388Z,46.27
2023-11-30T11:11:13.049Z,46.17
2023-11-30T11:15:17.885Z,42.63
2023-11-30T11:19:25.834Z,49.63
2023-11-30T11:23:42.067Z,64.87
2023-11-30T11:27:46.951Z,50.67
2023-11-30T11:31:51.968Z,55.73
2023-11-30T11:35:57.212Z,50.97
2023-11-30T11:40:04.965Z,55.70
2023-11-30T11:44:10.543Z,45.83
2023-11-30T11:48:15.924Z,57.53
2023-11-30T11:52:24.187Z,54.60
2023-11-30T11:56:31.580Z,51.57
2023-11-30T12:00:36.703Z,53.97
2023-11-30T12:04:41.545Z,58.87
2023-11-30T12:08:46.281Z,50.87
2023-11-30T12:12:54.789Z,53.60
2023-11-30T12:16:59.564Z,63.90
2023-11-30T12:21:04.415Z,56.77
2023-11-30T12:25:09.634Z,55.27
2023-11-30T12:29:17.003Z,49.60
2023-11-30T12:33:23.023Z,58.13
2023-11-30T12:37:27.849Z,56.73
2023-11-30T12:41:32.567Z,58.53
2023-11-30T12:45:40.376Z,61.03
2023-11-30T12:49:45.780Z,56.03
2023-11-30T12:53:52.399Z,55.33
2023-11-30T12:57:57.290Z,67.33
2023-11-30T13:02:04.807Z,55.47
2023-11-30T13:06:11.374Z,67.20
2023-11-30T13:10:17.087Z,56.03
2023-11-30T13:14:21.993Z,58.57
2023-11-30T13:18:31.574Z,56.07
2023-11-30T13:22:36.470Z,66.90
2023-11-30T13:26:41.857Z,64.77
2023-11-30T13:30:46.733Z,76.47
2023-11-30T13:34:56.020Z,67.37
2023-11-30T13:39:01.736Z,57.60
2023-11-30T13:43:06.612Z,73.17
2023-11-30T13:47:11.647Z,71.23
2023-11-30T13:51:19.050Z,64.77
2023-11-30T13:55:23.837Z,61.53
2023-11-30T13:59:28.606Z,61.13
2023-11-30T14:03:34.287Z,60.37
2023-11-30T14:07:41.895Z,57.47
2023-11-30T14:11:46.652Z,59.23
2023-11-30T14:15:51.479Z,61.47
2023-11-30T14:19:56.292Z,56.00
2023-11-30T14:24:06.221Z,64.20
2023-11-30T14:28:12.887Z,50.60
2023-11-30T14:32:20.100Z,56.03
2023-11-30T14:36:25.145Z,55.87
2023-11-30T14:40:32.504Z,53.90
2023-11-30T14:44:37.242Z,55.17
2023-11-30T14:48:42.005Z,48.83
2023-11-30T14:52:47.910Z,49.73
2023-11-30T14:56:55.460Z,56.20
2023-11-30T15:01:00.332Z,55.43
2023-11-30T15:05:07.452Z,51.97
2023-11-30T15:09:12.690Z,40.27
2023-11-30T15:13:21.623Z,51.77
2023-11-30T15:17:26.413Z,54.43
2023-11-30T15:21:31.996Z,47.80
2023-11-30T15:25:36.781Z,52.27
2023-11-30T15:29:45.311Z,47.73
2023-11-30T15:33:50.288Z,49.67
2023-11-30T15:37:58.119Z,57.33
2023-11-30T15:42:02.855Z,59.00
2023-11-30T15:46:11.940Z,49.50
2023-11-30T15:50:16.810Z,50.33
2023-11-30T15:54:21.816Z,55.17
2023-11-30T15:58:27.890Z,53.17
2023-11-30T16:02:35.472Z,53.80
2023-11-30T16:06:40.368Z,48.50
2023-11-30T16:10:45.133Z,56.30
2023-11-30T16:14:49.908Z,70.53
2023-11-30T16:18:57.319Z,62.70
2023-11-30T16:23:04.410Z,58.13
2023-11-30T16:27:11.610Z,56.00
2023-11-30T16:31:16.774Z,57.47
2023-11-30T16:35:24.266Z,57.80
2023-11-30T16:39:29.133Z,63.97
2023-11-30T16:43:37.067Z,61.57
2023-11-30T16:47:42.154Z,61.67
2023-11-30T16:51:55.334Z,54.97
2023-11-30T16:56:05.122Z,54.43
2023-11-30T17:00:11.206Z,57.83
2023-11-30T17:04:16.087Z,58.90
2023-11-30T17:08:23.430Z,60.13
2023-11-30T17:12:28.324Z,65.47
2023-11-30T17:16:33.091Z,60.43
2023-11-30T17:20:37.850Z,64.73
2023-11-30T17:24:45.450Z,58.47
2023-11-30T17:28:58.540Z,64.70
2023-11-30T17:33:03.637Z,76.30
2023-11-30T17:37:14.259Z,68.70
2023-11-30T17:41:21.954Z,69.97
2023-11-30T17:45:26.738Z,67.67
2023-11-30T17:49:31.476Z,65.00
2023-11-30T17:53:36.251Z,75.53
2023-11-30T17:57:44.357Z,70.37
2023-11-30T18:01:49.159Z,68.93
2023-11-30T18:05:54.095Z,55.67
2023-11-30T18:09:58.942Z,70.67
2023-11-30T18:14:06.354Z,68.10
2023-11-30T18:18:11.205Z,69.57
2023-11-30T18:22:16.020Z,57.73
2023-11-30T18:26:21.409Z,57.90
2023-11-30T18:30:28.761Z,65.77
2023-11-30T18:34:33.529Z,56.00
2023-11-30T18:38:44.096Z,57.83
2023-11-30T18:42:55.377Z,55.17
2023-11-30T18:47:03.101Z,43.60
2023-11-30T18:51:08.602Z,55.60
2023-11-30T18:55:13.688Z,58.83
2023-11-30T18:59:18.574Z,56.17
2023-11-30T19:03:26.211Z,53.97
2023-11-30T19:07:31.567Z,55.27
2023-11-30T19:11:36.356Z,52.07
2023-11-30T19:15:43.014Z,60.20
2023-11-30T19:19:50.454Z,56.63
2023-11-30T19:23:56.166Z,54.77
2023-11-30T19:28:06.638Z,56.05
2023-11-30T19:32:11.421Z,57.37
2023-11-30T19:36:18.928Z,59.53
2023-11-30T19:40:23.782Z,52.37
2023-11-30T19:44:28.533Z,55.57
2023-11-30T19:48:33.398Z,60.23
2023-11-30T19:52:41.274Z,48.67
2023-11-30T19:56:46.451Z,50.20
2023-11-30T20:00:52.543Z,48.50
2023-11-30T20:04:57.323Z,54.10
2023-11-30T20:09:05.222Z,48.07
2023-11-30T20:13:09.988Z,47.30
2023-11-30T20:17:15.365Z,49.60
2023-11-30T20:21:22.601Z,54.43
2023-11-30T20:25:30.300Z,60.77
2023-11-30T20:29:35.008Z,56.53
2023-11-30T20:33:39.764Z,56.90
2023-11-30T20:37:44.493Z,49.03
2023-11-30T20:41:51.874Z,47.13
2023-11-30T20:45:57.436Z,50.17
2023-11-30T20:50:02.806Z,43.07
2023-11-30T20:54:10.093Z,49.77
2023-11-30T20:58:17.725Z,51.93
2023-11-30T21:02:24.214Z,45.57
2023-11-30T21:06:29.176Z,52.43
2023-11-30T21:10:33.974Z,45.50
2023-11-30T21:14:41.331Z,46.10
2023-11-30T21:18:47.638Z,52.30
2023-11-30T21:22:53.878Z,43.97
2023-11-30T21:26:58.616Z,46.73
2023-11-30T21:31:06.128Z,53.30
2023-11-30T21:35:11.769Z,61.33
2023-11-30T21:39:16.712Z,57.37
2023-11-30T21:43:21.515Z,61.00
2023-11-30T21:47:29.656Z,51.63
2023-11-30T21:51:37.028Z,54.60
2023-11-30T21:55:42.698Z,56.57
2023-11-30T21:59:47.405Z,52.40
2023-11-30T22:03:54.970Z,60.30
2023-11-30T22:08:00.308Z,51.50
2023-11-30T22:12:06.709Z,51.70
2023-11-30T22:16:14.055Z,50.63
2023-11-30T22:20:22.583Z,45.63
2023-11-30T22:24:27.424Z,49.37
2023-11-30T22:28:32.170Z,45.07
2023-11-30T22:32:37.517Z,44.27
2023-11-30T22:36:45.796Z,43.50
2023-11-30T22:40:50.635Z,43.10
2023-11-30T22:44:55.523Z,44.43
2023-11-30T22:49:00.307Z,42.50
2023-11-30T22:53:07.823Z,36.67
2023-11-30T22:57:12.813Z,39.53
2023-11-30T23:01:18.369Z,44.33
2023-11-30T23:05:23.533Z,43.30
2023-11-30T23:09:31.090Z,36.40
2023-11-30T23:13:35.905Z,47.23
2023-11-30T23:17:40.732Z,37.37
2023-11-30T23:21:45.655Z,38.47
2023-11-30T23:25:53.384Z,38.50
2023-11-30T23:29:58.197Z,37.97
2023-11-30T23:34:03.107Z,42.33
2023-11-30T23:38:07.945Z,37.17
2023-11-30T23:42:15.686Z,43.50
2023-11-30T23:46:20.484Z,36.27
2023-11-30T23:50:26.069Z,34.83
2023-11-30T23:54:32.120Z,40.07
2023-11-30T23:58:39.432Z,38.97
